createdAt,value
2018-07-05T00:01:47.989Z,4.50
2018-07-05T00:04:34.428Z,5.00
2018-07-05T00:07:20.901Z,4.40
2018-07-05T00:10:07.206Z,6.30
2018-07-05T00:12:53.520Z,5.10
2018-07-05T00:15:40.005Z,6.13
2018-07-05T00:18:26.464Z,4.97
2018-07-05T00:21:12.936Z,5.27
2018-07-05T00:23:59.257Z,7.53
2018-07-05T00:26:45.460Z,6.33
2018-07-05T00:29:31.965Z,5.00
2018-07-05T00:32:18.343Z,5.83
2018-07-05T00:35:04.620Z,7.13
2018-07-05T00:37:51.105Z,5.00
2018-07-05T00:40:37.400Z,5.93
2018-07-05T00:43:23.712Z,5.50
2018-07-05T00:46:10.215Z,5.80
2018-07-05T00:48:56.496Z,6.33
2018-07-05T00:51:36.839Z,5.47
2018-07-05T00:54:23.123Z,5.13
2018-07-05T00:57:03.487Z,5.90
2018-07-05T00:59:43.834Z,6.73
2018-07-05T01:02:30.080Z,9.28
2018-07-05T01:05:16.539Z,6.47
2018-07-05T01:08:02.997Z,6.67
2018-07-05T01:10:49.487Z,5.93
2018-07-05T01:13:35.771Z,6.07
2018-07-05T01:16:22.073Z,4.90
2018-07-05T01:19:08.407Z,5.67
2018-07-05T01:21:54.737Z,6.43
2018-07-05T01:24:41.170Z,6.43
2018-07-05T01:27:27.420Z,5.30
2018-07-05T01:30:13.705Z,4.83
2018-07-05T01:33:00.176Z,5.00
2018-07-05T01:35:46.611Z,5.53
2018-07-05T01:38:32.942Z,7.33
2018-07-05T01:41:13.328Z,6.73
2018-07-05T01:43:59.727Z,6.97
2018-07-05T01:46:46.037Z,5.45
2018-07-05T01:49:32.348Z,5.27
2018-07-05T01:52:18.712Z,7.90
2018-07-05T01:55:05.089Z,6.73
2018-07-05T01:57:51.443Z,5.40
2018-07-05T02:00:38.113Z,8.17
2018-07-05T02:03:18.728Z,6.27
2018-07-05T02:06:05.095Z,6.93
2018-07-05T02:08:51.496Z,6.00
2018-07-05T02:11:37.782Z,5.27
2018-07-05T02:14:24.142Z,7.00
2018-07-05T02:17:10.388Z,9.40
2018-07-05T02:19:56.708Z,5.50
2018-07-05T02:22:43.096Z,4.80
2018-07-05T02:25:29.461Z,7.83
2018-07-05T02:28:15.812Z,9.43
2018-07-05T02:31:02.160Z,5.93
2018-07-05T02:33:42.540Z,9.13
2018-07-05T02:36:33.035Z,5.27
2018-07-05T02:39:24.748Z,7.13
2018-07-05T02:42:11.265Z,7.83
2018-07-05T02:44:57.679Z,6.37
2018-07-05T02:47:43.951Z,5.50
2018-07-05T02:50:24.215Z,8.03
2018-07-05T02:53:10.653Z,5.37
2018-07-05T02:55:56.973Z,5.63
2018-07-05T02:58:43.548Z,8.43
2018-07-05T03:01:29.857Z,6.00
2018-07-05T03:04:16.315Z,6.47
2018-07-05T03:07:02.552Z,5.80
2018-07-05T03:09:48.994Z,6.10
2018-07-05T03:12:35.373Z,5.85
2018-07-05T03:15:21.683Z,5.83
2018-07-05T03:18:08.071Z,7.17
2018-07-05T03:20:54.297Z,7.80
2018-07-05T03:23:40.829Z,5.40
2018-07-05T03:26:27.070Z,5.63
2018-07-05T03:29:13.381Z,6.23
2018-07-05T03:31:59.785Z,6.60
2018-07-05T03:34:46.140Z,10.30
2018-07-05T03:37:32.532Z,10.40
2018-07-05T03:40:19.011Z,6.67
2018-07-05T03:43:05.432Z,8.70
2018-07-05T03:45:51.920Z,6.00
2018-07-05T03:48:38.340Z,5.80
2018-07-05T03:51:24.536Z,7.43
2018-07-05T03:54:10.916Z,6.27
2018-07-05T03:56:57.244Z,6.57
2018-07-05T03:59:43.623Z,6.03
2018-07-05T04:02:29.988Z,6.50
2018-07-05T04:05:16.318Z,6.53
2018-07-05T04:08:02.681Z,6.03
2018-07-05T04:10:48.963Z,10.10
2018-07-05T04:13:35.412Z,9.23
2018-07-05T04:16:15.871Z,7.27
2018-07-05T04:19:02.396Z,16.00
2018-07-05T04:21:48.848Z,51.57
2018-07-05T04:24:35.242Z,12.28
2018-07-05T04:27:21.533Z,6.67
2018-07-05T04:30:07.915Z,9.10
2018-07-05T04:32:54.408Z,7.33
2018-07-05T04:35:40.764Z,6.97
2018-07-05T04:38:21.145Z,7.17
2018-07-05T04:41:07.589Z,7.60
2018-07-05T04:43:53.736Z,7.13
2018-07-05T04:46:40.135Z,7.33
2018-07-05T04:49:26.591Z,6.67
2018-07-05T04:52:12.747Z,7.47
2018-07-05T04:54:59.154Z,8.07
2018-07-05T04:57:45.668Z,8.27
2018-07-05T05:00:31.942Z,9.25
2018-07-05T05:03:18.226Z,13.57
2018-07-05T05:05:58.486Z,26.40
2018-07-05T05:08:44.785Z,15.27
2018-07-05T05:11:31.026Z,15.37
2018-07-05T05:14:17.390Z,16.90
2018-07-05T05:17:03.836Z,14.20
2018-07-05T05:19:50.353Z,16.43
2018-07-05T05:22:36.719Z,11.38
2018-07-05T05:25:23.133Z,14.37
2018-07-05T05:28:09.575Z,14.40
2018-07-05T05:30:49.884Z,17.43
2018-07-05T05:33:36.284Z,17.73
2018-07-05T05:36:22.559Z,15.33
2018-07-05T05:39:08.899Z,10.97
2018-07-05T05:41:55.273Z,13.13
2018-07-05T05:44:41.675Z,14.53
2018-07-05T05:47:27.978Z,9.87
2018-07-05T05:50:14.425Z,8.87
2018-07-05T05:53:00.970Z,11.70
2018-07-05T05:55:47.491Z,11.10
2018-07-05T05:58:33.893Z,9.33
2018-07-05T06:01:20.179Z,9.70
2018-07-05T06:04:06.612Z,9.80
2018-07-05T06:06:52.968Z,11.37
2018-07-05T06:09:39.401Z,9.00
2018-07-05T06:12:26.547Z,9.40
2018-07-05T06:15:12.939Z,7.67
2018-07-05T06:17:59.218Z,8.43
2018-07-05T06:20:45.492Z,8.00
2018-07-05T06:23:32.168Z,8.93
2018-07-05T06:26:18.533Z,10.40
2018-07-05T06:29:04.874Z,13.80
2018-07-05T06:31:51.149Z,11.07
2018-07-05T06:34:37.669Z,8.58
2018-07-05T06:37:17.956Z,9.93
2018-07-05T06:40:04.509Z,10.17
2018-07-05T06:42:50.876Z,11.10
2018-07-05T06:45:37.440Z,9.67
2018-07-05T06:48:17.845Z,10.50
2018-07-05T06:51:04.246Z,8.50
2018-07-05T06:53:50.749Z,7.90
2018-07-05T06:56:37.161Z,9.25
2018-07-05T06:59:23.463Z,8.17
2018-07-05T07:02:09.964Z,8.40
2018-07-05T07:04:56.341Z,8.10
2018-07-05T07:07:42.641Z,8.10
2018-07-05T07:10:29.141Z,10.60
2018-07-05T07:13:15.459Z,7.93
2018-07-05T07:16:01.861Z,9.67
2018-07-05T07:18:42.139Z,9.23
2018-07-05T07:21:28.497Z,8.20
2018-07-05T07:24:14.927Z,10.23
2018-07-05T07:27:01.488Z,10.10
2018-07-05T07:29:48.001Z,8.73
2018-07-05T07:32:34.406Z,9.17
2018-07-05T07:35:20.707Z,10.63
2018-07-05T07:38:07.100Z,7.03
2018-07-05T07:40:53.494Z,7.60
2018-07-05T07:43:21.272Z,8.67
2018-07-05T07:45:49.129Z,7.00
2018-07-05T07:48:16.872Z,6.63
2018-07-05T07:50:44.664Z,5.23
2018-07-05T07:53:12.545Z,8.03
2018-07-05T07:55:40.333Z,7.13
2018-07-05T07:58:08.210Z,6.90
2018-07-05T08:00:35.948Z,7.07
2018-07-05T08:03:03.736Z,7.20
2018-07-05T08:05:31.515Z,7.07
2018-07-05T08:07:59.356Z,9.63
2018-07-05T08:10:27.105Z,6.65
2018-07-05T08:12:54.882Z,9.57
2018-07-05T08:15:22.668Z,9.70
2018-07-05T08:17:50.708Z,6.13
2018-07-05T08:20:18.812Z,13.17
2018-07-05T08:22:46.605Z,7.63
2018-07-05T08:25:14.390Z,8.37
2018-07-05T08:27:42.200Z,10.18
2018-07-05T08:30:10.036Z,9.73
2018-07-05T08:32:37.833Z,7.43
2018-07-05T08:35:05.616Z,11.83
2018-07-05T08:37:33.421Z,8.03
2018-07-05T08:40:01.211Z,11.13
2018-07-05T08:42:28.999Z,10.67
2018-07-05T08:44:57.061Z,13.30
2018-07-05T08:47:25.135Z,8.47
2018-07-05T08:49:52.916Z,7.93
2018-07-05T08:52:20.781Z,10.77
2018-07-05T08:54:48.740Z,9.37
2018-07-05T08:57:16.587Z,8.37
2018-07-05T08:59:44.369Z,9.83
2018-07-05T09:02:12.177Z,10.60
2018-07-05T09:04:39.963Z,9.63
2018-07-05T09:07:07.739Z,8.93
2018-07-05T09:09:35.528Z,9.60
2018-07-05T09:12:03.308Z,8.30
2018-07-05T09:14:31.100Z,7.87
2018-07-05T09:16:58.916Z,8.53
2018-07-05T09:19:26.699Z,7.93
2018-07-05T09:21:54.485Z,9.13
2018-07-05T09:24:22.332Z,6.80
2018-07-05T09:26:50.240Z,8.43
2018-07-05T09:29:17.905Z,8.77
2018-07-05T09:31:45.697Z,8.97
2018-07-05T09:34:13.748Z,10.45
2018-07-05T09:36:41.526Z,10.70
2018-07-05T09:39:09.312Z,8.60
2018-07-05T09:41:37.377Z,12.43
2018-07-05T09:44:05.168Z,9.37
2018-07-05T09:46:32.952Z,8.17
2018-07-05T09:49:00.736Z,9.00
2018-07-05T09:51:28.521Z,11.90
2018-07-05T09:53:56.558Z,9.77
2018-07-05T09:56:24.349Z,7.17
2018-07-05T09:58:52.517Z,8.60
2018-07-05T10:01:20.301Z,8.77
2018-07-05T10:03:48.381Z,9.30
2018-07-05T10:06:16.136Z,10.50
2018-07-05T10:08:44.185Z,12.20
2018-07-05T10:11:11.973Z,10.43
2018-07-05T10:13:40.040Z,8.97
2018-07-05T10:16:07.832Z,7.83
2018-07-05T10:18:35.617Z,9.50
2018-07-05T10:21:03.405Z,11.37
2018-07-05T10:23:31.203Z,9.40
2018-07-05T10:25:58.992Z,7.20
2018-07-05T10:28:26.774Z,8.70
2018-07-05T10:31:13.108Z,8.60
2018-07-05T10:33:45.493Z,7.93
2018-07-05T10:36:13.275Z,6.28
2018-07-05T10:38:41.084Z,7.73
2018-07-05T10:41:27.624Z,9.87
2018-07-05T10:44:08.011Z,7.33
2018-07-05T10:46:54.544Z,6.53
2018-07-05T10:49:40.925Z,6.47
2018-07-05T10:52:27.103Z,5.27
2018-07-05T10:55:13.478Z,5.53
2018-07-05T10:57:59.989Z,7.80
2018-07-05T11:00:46.341Z,6.20
2018-07-05T11:03:32.753Z,4.80
2018-07-05T11:06:19.127Z,4.43
2018-07-05T11:09:06.507Z,4.60
2018-07-05T11:11:47.212Z,5.57
2018-07-05T11:14:33.734Z,5.27
2018-07-05T11:17:20.064Z,5.73
2018-07-05T11:20:06.325Z,7.33
2018-07-05T11:22:52.561Z,4.70
2018-07-05T11:25:39.009Z,7.53
2018-07-05T11:28:25.899Z,5.77
2018-07-05T11:31:12.271Z,7.50
2018-07-05T11:33:58.519Z,9.07
2018-07-05T11:36:44.905Z,5.37
2018-07-05T11:39:31.292Z,5.10
2018-07-05T11:42:11.747Z,9.63
2018-07-05T11:44:58.068Z,5.03
2018-07-05T11:47:44.436Z,5.87
2018-07-05T11:50:30.681Z,5.20
2018-07-05T11:53:16.988Z,9.20
2018-07-05T11:56:03.334Z,4.97
2018-07-05T11:58:49.596Z,5.57
2018-07-05T12:01:35.865Z,4.20
2018-07-05T12:04:22.273Z,3.87
2018-07-05T12:07:08.753Z,5.07
2018-07-05T12:09:55.015Z,6.90
2018-07-05T12:12:41.396Z,3.40
2018-07-05T12:15:27.763Z,3.73
2018-07-05T12:18:14.254Z,5.90
2018-07-05T12:20:54.619Z,3.47
2018-07-05T12:23:41.157Z,3.57
2018-07-05T12:26:27.469Z,3.40
2018-07-05T12:29:14.166Z,6.47
2018-07-05T12:31:54.337Z,6.10
2018-07-05T12:34:40.664Z,3.67
2018-07-05T12:37:27.067Z,6.73
2018-07-05T12:40:07.399Z,2.40
2018-07-05T12:42:53.809Z,2.67
2018-07-05T12:45:40.233Z,4.20
2018-07-05T12:48:26.508Z,2.93
2018-07-05T12:51:12.959Z,4.40
2018-07-05T12:53:59.309Z,6.20
2018-07-05T12:56:45.646Z,6.63
2018-07-05T12:59:32.008Z,6.47
2018-07-05T13:02:18.357Z,5.53
2018-07-05T13:05:04.686Z,6.50
2018-07-05T13:07:51.028Z,3.47
2018-07-05T13:10:37.453Z,3.05
2018-07-05T13:13:23.737Z,7.30
2018-07-05T13:16:10.001Z,4.37
2018-07-05T13:18:56.613Z,3.03
2018-07-05T13:21:37.327Z,3.80
2018-07-05T13:24:23.913Z,3.63
2018-07-05T13:27:10.314Z,2.97
2018-07-05T13:29:56.672Z,5.33
2018-07-05T13:32:43.148Z,4.75
2018-07-05T13:35:29.475Z,6.87
2018-07-05T13:38:15.854Z,9.37
2018-07-05T13:41:02.281Z,10.27
2018-07-05T13:43:48.553Z,9.20
2018-07-05T13:46:34.795Z,4.95
2018-07-05T13:49:15.165Z,4.50
2018-07-05T13:52:01.699Z,8.87
2018-07-05T13:54:48.247Z,6.50
2018-07-05T13:57:34.703Z,9.60
2018-07-05T14:00:21.212Z,4.83
2018-07-05T14:03:07.728Z,4.30
2018-07-05T14:05:54.132Z,4.63
2018-07-05T14:08:40.512Z,4.77
2018-07-05T14:11:26.880Z,5.10
2018-07-05T14:14:13.121Z,6.10
2018-07-05T14:16:59.600Z,3.33
2018-07-05T14:19:45.896Z,2.80
2018-07-05T14:22:32.225Z,4.37
2018-07-05T14:25:18.707Z,4.40
2018-07-05T14:28:05.136Z,2.87
2018-07-05T14:30:51.437Z,4.03
2018-07-05T14:33:38.083Z,3.17
2018-07-05T14:36:19.677Z,4.17
2018-07-05T14:39:06.496Z,5.73
2018-07-05T14:41:52.951Z,4.30
2018-07-05T14:44:39.252Z,3.70
2018-07-05T14:47:25.837Z,4.63
2018-07-05T14:50:12.304Z,3.90
2018-07-05T14:52:58.645Z,4.00
2018-07-05T14:55:44.998Z,4.27
2018-07-05T14:58:31.366Z,4.85
2018-07-05T15:01:17.762Z,3.90
2018-07-05T15:04:04.346Z,6.17
2018-07-05T15:06:50.605Z,5.33
2018-07-05T15:09:37.022Z,3.87
2018-07-05T15:12:23.560Z,4.10
2018-07-05T15:15:09.837Z,3.47
2018-07-05T15:17:56.327Z,4.57
2018-07-05T15:20:42.768Z,5.03
2018-07-05T15:23:29.159Z,4.37
2018-07-05T15:26:15.449Z,3.77
2018-07-05T15:29:01.816Z,5.27
2018-07-05T15:31:48.107Z,4.03
2018-07-05T15:34:34.564Z,6.85
2018-07-05T15:37:21.029Z,5.67
2018-07-05T15:40:07.420Z,4.10
2018-07-05T15:42:53.806Z,4.07
2018-07-05T15:45:40.314Z,4.10
2018-07-05T15:48:26.749Z,3.63
2018-07-05T15:51:13.096Z,3.53
2018-07-05T15:53:59.614Z,5.20
2018-07-05T15:56:46.086Z,3.57
2018-07-05T15:59:32.468Z,4.30
2018-07-05T16:02:18.726Z,3.57
2018-07-05T16:05:05.145Z,4.70
2018-07-05T16:07:51.536Z,2.90
2018-07-05T16:10:38.780Z,2.97
2018-07-05T16:13:25.281Z,2.72
2018-07-05T16:16:11.561Z,3.43
2018-07-05T16:18:57.849Z,3.97
2018-07-05T16:21:44.397Z,3.33
2018-07-05T16:24:31.058Z,3.98
2018-07-05T16:27:11.483Z,4.47
2018-07-05T16:29:52.002Z,3.20
2018-07-05T16:35:28.820Z,2.93
2018-07-05T16:38:15.230Z,4.70
2018-07-05T16:41:01.755Z,3.20
2018-07-05T16:43:48.295Z,3.10
2018-07-05T16:46:34.821Z,3.65
2018-07-05T16:50:22.688Z,3.13
2018-07-05T16:53:09.071Z,3.30
2018-07-05T16:55:55.504Z,5.83
2018-07-05T16:58:41.999Z,3.40
2018-07-05T17:01:28.233Z,3.30
2018-07-05T17:04:15.157Z,3.10
2018-07-05T17:07:01.598Z,4.67
2018-07-05T17:09:48.031Z,3.33
2018-07-05T17:12:34.278Z,4.13
2018-07-05T17:15:20.699Z,3.93
2018-07-05T17:18:07.077Z,5.07
2018-07-05T17:20:53.360Z,3.97
2018-07-05T17:23:39.713Z,3.33
2018-07-05T17:26:19.996Z,4.13
2018-07-05T17:29:06.716Z,4.07
2018-07-05T17:31:53.140Z,5.00
2018-07-05T17:34:39.423Z,2.57
2018-07-05T17:37:25.632Z,4.37
2018-07-05T17:40:12.014Z,5.13
2018-07-05T17:42:58.339Z,3.90
2018-07-05T17:45:44.597Z,4.50
2018-07-05T17:48:31.003Z,3.33
2018-07-05T17:51:17.464Z,4.77
2018-07-05T17:54:03.909Z,3.27
2018-07-05T17:56:50.308Z,4.80
2018-07-05T17:59:36.572Z,4.07
2018-07-05T18:02:16.845Z,5.17
2018-07-05T18:05:03.272Z,6.23
2018-07-05T18:07:49.449Z,6.17
2018-07-05T18:10:35.790Z,5.85
2018-07-05T18:13:22.407Z,5.07
2018-07-05T18:16:08.772Z,4.33
2018-07-05T18:18:55.115Z,5.50
2018-07-05T18:21:41.901Z,6.17
2018-07-05T18:24:28.429Z,7.13
2018-07-05T18:27:14.740Z,6.13
2018-07-05T18:30:01.038Z,5.37
2018-07-05T18:32:47.489Z,7.13
2018-07-05T18:35:33.735Z,6.57
2018-07-05T18:38:14.125Z,5.83
2018-07-05T18:41:00.521Z,6.03
2018-07-05T18:43:46.866Z,8.47
2018-07-05T18:46:33.138Z,5.22
2018-07-05T18:49:19.562Z,7.87
2018-07-05T18:52:05.763Z,7.10
2018-07-05T18:54:52.209Z,6.23
2018-07-05T18:57:38.409Z,5.73
2018-07-05T19:00:19.979Z,5.73
2018-07-05T19:03:06.338Z,6.25
2018-07-05T19:05:52.693Z,4.60
2018-07-05T19:08:39.173Z,6.33
2018-07-05T19:11:25.429Z,5.20
2018-07-05T19:14:11.637Z,6.20
2018-07-05T19:16:57.798Z,8.10
2018-07-05T19:19:44.222Z,5.67
2018-07-05T19:22:30.404Z,5.95
2018-07-05T19:25:16.776Z,6.40
2018-07-05T19:28:03.049Z,5.67
2018-07-05T19:30:49.504Z,5.03
2018-07-05T19:33:35.880Z,6.43
2018-07-05T19:36:22.135Z,5.63
2018-07-05T19:39:08.445Z,6.53
2018-07-05T19:41:54.842Z,6.23
2018-07-05T19:44:40.998Z,7.50
2018-07-05T19:47:27.220Z,8.67
2018-07-05T19:50:13.638Z,9.30
2018-07-05T19:52:59.888Z,11.47
2018-07-05T19:55:46.233Z,11.47
2018-07-05T19:58:32.433Z,10.82
2018-07-05T20:01:18.793Z,11.00
2018-07-05T20:04:05.296Z,8.87
2018-07-05T20:06:51.511Z,11.63
2018-07-05T20:09:37.605Z,12.40
2018-07-05T20:12:23.824Z,14.27
2018-07-05T20:15:10.249Z,11.37
2018-07-05T20:17:50.599Z,13.27
2018-07-05T20:20:36.941Z,12.03
2018-07-05T20:23:23.316Z,12.47
2018-07-05T20:26:09.479Z,14.27
2018-07-05T20:28:49.794Z,12.27
2018-07-05T20:31:36.177Z,12.93
2018-07-05T20:34:22.713Z,12.40
2018-07-05T20:37:09.086Z,9.57
2018-07-05T20:39:55.363Z,11.33
2018-07-05T20:42:41.788Z,11.30
2018-07-05T20:45:28.183Z,11.63
2018-07-05T20:48:14.494Z,13.33
2018-07-05T20:51:00.910Z,12.47
2018-07-05T20:53:47.317Z,14.73
2018-07-05T20:56:33.541Z,11.90
2018-07-05T20:59:13.852Z,13.30
2018-07-05T21:02:00.184Z,14.30
2018-07-05T21:04:46.760Z,13.57
2018-07-05T21:07:33.131Z,13.87
2018-07-05T21:10:19.351Z,12.13
2018-07-05T21:13:05.692Z,14.60
2018-07-05T21:15:52.105Z,14.30
2018-07-05T21:18:38.568Z,16.65
2018-07-05T21:21:24.773Z,12.53
2018-07-05T21:24:10.996Z,14.77
2018-07-05T21:26:51.393Z,15.70
2018-07-05T21:29:37.812Z,13.80
2018-07-05T21:32:24.166Z,13.23
2018-07-05T21:35:10.573Z,13.13
2018-07-05T21:37:57.005Z,16.87
2018-07-05T21:40:43.398Z,15.10
2018-07-05T21:43:29.606Z,14.57
2018-07-05T21:46:16.079Z,13.67
2018-07-05T21:49:02.495Z,15.23
2018-07-05T21:51:48.804Z,15.60
2018-07-05T21:54:35.182Z,14.85
2018-07-05T21:57:21.578Z,16.10
2018-07-05T22:00:07.826Z,12.80
2018-07-05T22:02:54.152Z,10.30
2018-07-05T22:05:34.528Z,13.23
2018-07-05T22:08:21.055Z,14.27
2018-07-05T22:11:07.301Z,13.00
2018-07-05T22:13:53.689Z,12.80
2018-07-05T22:16:45.325Z,11.88
2018-07-05T22:19:37.074Z,11.63
2018-07-05T22:22:28.771Z,9.27
2018-07-05T22:25:20.548Z,8.70
2018-07-05T22:28:12.385Z,11.60
2018-07-05T22:31:04.148Z,9.93
2018-07-05T22:33:50.744Z,10.40
2018-07-05T22:36:37.111Z,9.03
2018-07-05T22:39:23.487Z,10.80
2018-07-05T22:42:09.907Z,9.37
2018-07-05T22:44:56.100Z,8.13
2018-07-05T22:47:42.323Z,9.57
2018-07-05T22:50:28.708Z,7.67
2018-07-05T22:53:15.150Z,9.17
2018-07-05T22:56:01.571Z,8.93
2018-07-05T22:58:41.948Z,8.17
2018-07-05T23:01:28.293Z,9.87
2018-07-05T23:04:14.616Z,8.50
2018-07-05T23:07:00.882Z,9.83
2018-07-05T23:09:47.222Z,9.63
2018-07-05T23:12:27.665Z,10.72
2018-07-05T23:15:14.029Z,11.27
2018-07-05T23:18:00.507Z,9.37
2018-07-05T23:20:46.741Z,11.37
2018-07-05T23:23:33.037Z,10.03
2018-07-05T23:26:19.369Z,8.30
2018-07-05T23:29:05.846Z,9.63
2018-07-05T23:31:52.118Z,10.87
2018-07-05T23:34:38.461Z,9.97
2018-07-05T23:37:24.816Z,10.07
2018-07-05T23:40:11.254Z,9.60
2018-07-05T23:42:57.516Z,11.10
2018-07-05T23:45:43.873Z,11.80
2018-07-05T23:48:24.333Z,10.43
2018-07-05T23:51:04.747Z,10.40
2018-07-05T23:53:51.293Z,9.40
2018-07-05T23:56:31.561Z,9.70
2018-07-05T23:59:17.956Z,8.50
